This is the latest recevied weather packets stored in our database for station/object SV2RIM-2. If no packets are shown the sender has not sent any weather packets the latest 10 day(s).
| Time | Temp. | Humidity | Pressure | Rain* | Wind** | Luminosity | Snow |
|---|---|---|---|---|---|---|---|
| 1777569919 | 8.89° C | 72% | 1017 hPa | 0.25 mm | - | - | - |
| 1777569319 | 8.89° C | 72% | 1017 hPa | 0.25 mm | - | - | - |
| 1777568719 | 9.44° C | 71% | 1016.7 hPa | 0.25 mm | - | - | - |
| 1777568119 | 9.44° C | 70% | 1016.6 hPa | 0.25 mm | - | - | - |
| 1777567519 | 8.89° C | 71% | 1016.5 hPa | 0.25 mm | - | - | - |
| 1777566919 | 8.89° C | 71% | 1016.3 hPa | 0.25 mm | - | - | - |
| 1777566319 | 9.44° C | 70% | 1016.1 hPa | 0.25 mm | - | - | - |
| 1777565719 | 9.44° C | 70% | 1016.2 hPa | 0.25 mm | - | - | - |
| 1777565119 | 9.44° C | 70% | 1016 hPa | 0.25 mm | - | - | - |
| 1777564519 | 9.44° C | 70% | 1016 hPa | 0.25 mm | - | - | - |
| 1777563919 | 8.89° C | 70% | 1016 hPa | 0.51 mm | - | - | - |
| 1777563319 | 8.89° C | 71% | 1015.9 hPa | 0.76 mm | - | - | - |
| 1777562719 | 8.33° C | 71% | 1016 hPa | 1.02 mm | - | - | - |
| 1777562119 | 8.33° C | 72% | 1015.8 hPa | 1.27 mm | - | - | - |
| 1777561519 | 8.33° C | 72% | 1015.6 hPa | 2.03 mm | - | - | - |
| 1777560919 | 8.33° C | 72% | 1015.5 hPa | 2.54 mm | - | - | - |
| 1777560319 | 8.33° C | 73% | 1015.4 hPa | 2.79 mm | - | - | - |
| 1777559719 | 8.33° C | 73% | 1015.6 hPa | 2.79 mm | - | - | - |
| 1777559119 | 8.33° C | 73% | 1015.4 hPa | 2.29 mm | - | - | - |
| 1777558519 | 8.89° C | 72% | 1015.2 hPa | 2.03 mm | - | - | - |
| 1777557919 | 8.33° C | 74% | 1015.2 hPa | 1.27 mm | - | - | - |
| 1777557319 | 9.44° C | 71% | 1015.1 hPa | 0.76 mm | - | - | - |
| 1777556719 | 10° C | 69% | 1014.8 hPa | 0.25 mm | - | - | - |
| 1777556119 | 10.56° C | 67% | 1014.7 hPa | - | - | - | - |
| 1777555519 | 11.11° C | 65% | 1014.5 hPa | - | - | - | - |
* Rain latest hour (hover to see other rain measurements)
** Current wind speed in m/s (hover to see current wind gust speed)